DGLY weather

Yendi Airport
Yendi, Northern Region, Ghana

Public forecast

Using degrees Celsius for public forecast. Weather courtesy of forecast.io.

Closest aviation weather report (METAR) to Yendi Airport

Report is more than 6 hours old.

Closest report is Tamale Airport, 51.5 nm (95.3 km) W. Retrieved 2020/06/01 17:00 UTC (8 hours ago):

DGLE 011700Z 18005KT 9999 SCT013 35/24 Q1009 NOSIG

Closest aviation forecast (TAF) to Yendi Airport

Closest forecast is Niamtougou International Airport, 68.1 nm (126.0 km) ENE. Retrieved 2020-06-02 00:21 UTC (43 minutes ago):

TAF DXNG 012300Z 0200/0224 VRB05KT 9999 BKN006 FEW016CB TEMPO 0200/0204 TS BECMG 0203/0206 FEW012